sensor_id;sensor_type;location;lat;lon;timestamp;P1;durP1;ratioP1;P2;durP2;ratioP2
37943;SDS011;23767;42.024;23.086;2024-03-08T00:01:09;9.82;;;5.20;;
37943;SDS011;23767;42.024;23.086;2024-03-08T00:03:35;8.90;;;5.40;;
37943;SDS011;23767;42.024;23.086;2024-03-08T00:06:01;9.82;;;5.43;;
37943;SDS011;23767;42.024;23.086;2024-03-08T00:08:27;7.35;;;4.80;;
37943;SDS011;23767;42.024;23.086;2024-03-08T00:10:53;8.52;;;5.20;;
37943;SDS011;23767;42.024;23.086;2024-03-08T00:13:19;7.47;;;4.95;;
37943;SDS011;23767;42.024;23.086;2024-03-08T00:15:44;8.38;;;5.28;;
37943;SDS011;23767;42.024;23.086;2024-03-08T00:18:10;6.72;;;4.68;;
37943;SDS011;23767;42.024;23.086;2024-03-08T00:20:36;6.57;;;4.30;;
37943;SDS011;23767;42.024;23.086;2024-03-08T00:23:02;6.88;;;3.97;;
37943;SDS011;23767;42.024;23.086;2024-03-08T00:25:28;8.73;;;5.03;;
37943;SDS011;23767;42.024;23.086;2024-03-08T00:27:53;8.27;;;4.95;;
37943;SDS011;23767;42.024;23.086;2024-03-08T00:30:22;8.40;;;4.57;;
37943;SDS011;23767;42.024;23.086;2024-03-08T00:32:50;8.07;;;5.10;;
37943;SDS011;23767;42.024;23.086;2024-03-08T00:35:15;9.80;;;4.03;;
37943;SDS011;23767;42.024;23.086;2024-03-08T00:37:41;7.53;;;4.18;;
37943;SDS011;23767;42.024;23.086;2024-03-08T00:40:07;5.80;;;3.72;;
37943;SDS011;23767;42.024;23.086;2024-03-08T00:42:34;7.70;;;3.92;;
37943;SDS011;23767;42.024;23.086;2024-03-08T00:45:00;8.35;;;4.10;;
37943;SDS011;23767;42.024;23.086;2024-03-08T00:47:26;7.88;;;3.95;;
37943;SDS011;23767;42.024;23.086;2024-03-08T00:49:52;5.72;;;3.80;;
37943;SDS011;23767;42.024;23.086;2024-03-08T00:52:18;6.75;;;4.30;;
37943;SDS011;23767;42.024;23.086;2024-03-08T00:54:44;7.03;;;4.60;;
37943;SDS011;23767;42.024;23.086;2024-03-08T00:57:10;8.60;;;4.93;;
37943;SDS011;23767;42.024;23.086;2024-03-08T00:59:37;8.40;;;4.75;;
37943;SDS011;23767;42.024;23.086;2024-03-08T01:02:03;6.65;;;4.75;;
37943;SDS011;23767;42.024;23.086;2024-03-08T01:04:29;8.48;;;5.47;;
37943;SDS011;23767;42.024;23.086;2024-03-08T01:06:57;9.48;;;5.95;;
37943;SDS011;23767;42.024;23.086;2024-03-08T01:09:24;8.18;;;5.22;;
37943;SDS011;23767;42.024;23.086;2024-03-08T01:11:51;9.57;;;6.22;;
37943;SDS011;23767;42.024;23.086;2024-03-08T01:14:19;8.88;;;5.88;;
37943;SDS011;23767;42.024;23.086;2024-03-08T01:16:47;9.45;;;6.00;;
37943;SDS011;23767;42.024;23.086;2024-03-08T01:19:13;6.53;;;4.97;;
37943;SDS011;23767;42.024;23.086;2024-03-08T01:21:39;7.13;;;5.43;;
37943;SDS011;23767;42.024;23.086;2024-03-08T01:24:04;8.68;;;5.97;;
37943;SDS011;23767;42.024;23.086;2024-03-08T01:26:30;9.95;;;5.90;;
37943;SDS011;23767;42.024;23.086;2024-03-08T01:28:56;10.75;;;6.50;;
37943;SDS011;23767;42.024;23.086;2024-03-08T01:31:22;9.45;;;6.43;;
37943;SDS011;23767;42.024;23.086;2024-03-08T01:33:47;11.45;;;5.93;;
37943;SDS011;23767;42.024;23.086;2024-03-08T01:36:15;8.68;;;5.97;;
37943;SDS011;23767;42.024;23.086;2024-03-08T01:38:41;8.48;;;6.05;;
37943;SDS011;23767;42.024;23.086;2024-03-08T01:41:07;11.30;;;7.20;;
37943;SDS011;23767;42.024;23.086;2024-03-08T01:43:34;8.88;;;6.63;;
37943;SDS011;23767;42.024;23.086;2024-03-08T01:45:59;10.05;;;7.35;;
37943;SDS011;23767;42.024;23.086;2024-03-08T01:48:26;9.45;;;6.55;;
37943;SDS011;23767;42.024;23.086;2024-03-08T01:50:54;8.25;;;5.85;;
37943;SDS011;23767;42.024;23.086;2024-03-08T01:53:21;9.48;;;6.28;;
37943;SDS011;23767;42.024;23.086;2024-03-08T01:55:48;8.90;;;6.65;;
37943;SDS011;23767;42.024;23.086;2024-03-08T01:58:15;10.60;;;6.60;;
37943;SDS011;23767;42.024;23.086;2024-03-08T02:00:44;10.32;;;6.57;;
37943;SDS011;23767;42.024;23.086;2024-03-08T02:03:11;9.52;;;6.57;;
37943;SDS011;23767;42.024;23.086;2024-03-08T02:05:38;9.90;;;6.93;;
37943;SDS011;23767;42.024;23.086;2024-03-08T02:08:10;9.40;;;6.65;;
37943;SDS011;23767;42.024;23.086;2024-03-08T02:10:40;10.35;;;6.25;;
37943;SDS011;23767;42.024;23.086;2024-03-08T02:13:07;10.75;;;6.32;;
37943;SDS011;23767;42.024;23.086;2024-03-08T02:15:52;7.63;;;5.57;;
37943;SDS011;23767;42.024;23.086;2024-03-08T02:18:19;8.88;;;5.88;;
37943;SDS011;23767;42.024;23.086;2024-03-08T02:20:51;8.48;;;5.82;;
37943;SDS011;23767;42.024;23.086;2024-03-08T02:23:18;9.68;;;6.28;;
37943;SDS011;23767;42.024;23.086;2024-03-08T02:25:45;11.63;;;6.53;;
37943;SDS011;23767;42.024;23.086;2024-03-08T02:28:11;7.53;;;6.05;;
37943;SDS011;23767;42.024;23.086;2024-03-08T02:30:37;8.45;;;5.75;;
37943;SDS011;23767;42.024;23.086;2024-03-08T02:33:04;8.35;;;5.68;;
37943;SDS011;23767;42.024;23.086;2024-03-08T02:35:30;8.30;;;6.30;;
37943;SDS011;23767;42.024;23.086;2024-03-08T02:37:56;8.48;;;5.93;;
37943;SDS011;23767;42.024;23.086;2024-03-08T02:40:23;7.80;;;5.45;;
37943;SDS011;23767;42.024;23.086;2024-03-08T02:42:49;9.05;;;6.10;;
37943;SDS011;23767;42.024;23.086;2024-03-08T02:45:14;9.50;;;6.00;;
37943;SDS011;23767;42.024;23.086;2024-03-08T02:47:40;9.32;;;6.55;;
37943;SDS011;23767;42.024;23.086;2024-03-08T02:50:06;9.73;;;7.35;;
37943;SDS011;23767;42.024;23.086;2024-03-08T02:52:35;9.15;;;6.45;;
37943;SDS011;23767;42.024;23.086;2024-03-08T02:55:01;9.23;;;7.03;;
37943;SDS011;23767;42.024;23.086;2024-03-08T02:57:27;10.77;;;6.72;;
37943;SDS011;23767;42.024;23.086;2024-03-08T02:59:55;8.85;;;6.40;;
37943;SDS011;23767;42.024;23.086;2024-03-08T03:02:21;9.30;;;6.45;;
37943;SDS011;23767;42.024;23.086;2024-03-08T03:04:48;9.80;;;6.75;;
37943;SDS011;23767;42.024;23.086;2024-03-08T03:07:14;11.48;;;7.32;;
37943;SDS011;23767;42.024;23.086;2024-03-08T03:09:40;9.90;;;6.60;;
37943;SDS011;23767;42.024;23.086;2024-03-08T03:12:06;8.70;;;6.70;;
37943;SDS011;23767;42.024;23.086;2024-03-08T03:14:34;11.27;;;7.40;;
37943;SDS011;23767;42.024;23.086;2024-03-08T03:17:03;9.85;;;7.45;;
37943;SDS011;23767;42.024;23.086;2024-03-08T03:19:29;10.43;;;7.55;;
37943;SDS011;23767;42.024;23.086;2024-03-08T03:21:55;10.65;;;6.78;;
37943;SDS011;23767;42.024;23.086;2024-03-08T03:24:22;11.10;;;8.65;;
37943;SDS011;23767;42.024;23.086;2024-03-08T03:26:48;9.98;;;7.90;;
37943;SDS011;23767;42.024;23.086;2024-03-08T03:29:14;11.90;;;8.45;;
37943;SDS011;23767;42.024;23.086;2024-03-08T03:31:42;9.07;;;7.70;;
37943;SDS011;23767;42.024;23.086;2024-03-08T03:34:11;9.93;;;8.23;;
37943;SDS011;23767;42.024;23.086;2024-03-08T03:36:37;11.32;;;8.82;;
37943;SDS011;23767;42.024;23.086;2024-03-08T03:39:07;10.65;;;8.50;;
37943;SDS011;23767;42.024;23.086;2024-03-08T03:41:38;10.13;;;8.43;;
37943;SDS011;23767;42.024;23.086;2024-03-08T03:44:04;14.43;;;9.45;;
37943;SDS011;23767;42.024;23.086;2024-03-08T03:46:33;10.32;;;8.35;;
37943;SDS011;23767;42.024;23.086;2024-03-08T03:48:59;10.77;;;8.60;;
37943;SDS011;23767;42.024;23.086;2024-03-08T03:51:25;11.75;;;8.45;;
37943;SDS011;23767;42.024;23.086;2024-03-08T03:53:51;10.85;;;8.20;;
37943;SDS011;23767;42.024;23.086;2024-03-08T03:56:18;10.02;;;8.07;;
37943;SDS011;23767;42.024;23.086;2024-03-08T03:58:44;9.50;;;7.45;;
37943;SDS011;23767;42.024;23.086;2024-03-08T04:01:09;11.43;;;8.10;;
37943;SDS011;23767;42.024;23.086;2024-03-08T04:03:35;10.35;;;7.72;;
37943;SDS011;23767;42.024;23.086;2024-03-08T04:06:02;11.48;;;7.85;;
37943;SDS011;23767;42.024;23.086;2024-03-08T04:08:29;9.95;;;7.60;;
37943;SDS011;23767;42.024;23.086;2024-03-08T04:10:56;11.95;;;10.10;;
37943;SDS011;23767;42.024;23.086;2024-03-08T04:13:23;10.88;;;8.77;;
37943;SDS011;23767;42.024;23.086;2024-03-08T04:15:48;11.60;;;8.45;;
37943;SDS011;23767;42.024;23.086;2024-03-08T04:18:14;8.50;;;7.10;;
37943;SDS011;23767;42.024;23.086;2024-03-08T04:20:40;9.20;;;7.43;;
37943;SDS011;23767;42.024;23.086;2024-03-08T04:23:06;11.48;;;8.13;;
37943;SDS011;23767;42.024;23.086;2024-03-08T04:25:31;10.85;;;8.05;;
37943;SDS011;23767;42.024;23.086;2024-03-08T04:27:57;11.23;;;8.40;;
37943;SDS011;23767;42.024;23.086;2024-03-08T04:30:23;12.35;;;8.05;;
37943;SDS011;23767;42.024;23.086;2024-03-08T04:32:49;14.02;;;8.40;;
37943;SDS011;23767;42.024;23.086;2024-03-08T04:35:15;11.68;;;7.35;;
37943;SDS011;23767;42.024;23.086;2024-03-08T04:37:41;8.52;;;6.50;;
37943;SDS011;23767;42.024;23.086;2024-03-08T04:40:07;9.63;;;6.70;;
37943;SDS011;23767;42.024;23.086;2024-03-08T04:42:32;10.65;;;6.43;;
37943;SDS011;23767;42.024;23.086;2024-03-08T04:44:59;9.98;;;6.88;;
37943;SDS011;23767;42.024;23.086;2024-03-08T04:47:25;11.05;;;7.20;;
37943;SDS011;23767;42.024;23.086;2024-03-08T04:49:51;12.10;;;7.10;;
37943;SDS011;23767;42.024;23.086;2024-03-08T04:52:16;10.70;;;7.30;;
37943;SDS011;23767;42.024;23.086;2024-03-08T04:54:43;9.95;;;6.40;;
37943;SDS011;23767;42.024;23.086;2024-03-08T04:57:09;11.80;;;7.43;;
37943;SDS011;23767;42.024;23.086;2024-03-08T04:59:36;10.73;;;8.25;;
37943;SDS011;23767;42.024;23.086;2024-03-08T05:02:02;8.88;;;7.05;;
37943;SDS011;23767;42.024;23.086;2024-03-08T05:04:28;10.35;;;6.97;;
37943;SDS011;23767;42.024;23.086;2024-03-08T05:06:54;12.77;;;8.18;;
37943;SDS011;23767;42.024;23.086;2024-03-08T05:09:20;12.25;;;8.60;;
37943;SDS011;23767;42.024;23.086;2024-03-08T05:11:46;16.83;;;8.77;;
37943;SDS011;23767;42.024;23.086;2024-03-08T05:14:12;13.77;;;9.88;;
37943;SDS011;23767;42.024;23.086;2024-03-08T05:16:44;12.63;;;9.43;;
37943;SDS011;23767;42.024;23.086;2024-03-08T05:19:17;11.20;;;8.80;;
37943;SDS011;23767;42.024;23.086;2024-03-08T05:21:44;10.95;;;9.20;;
37943;SDS011;23767;42.024;23.086;2024-03-08T05:24:10;15.60;;;8.80;;
37943;SDS011;23767;42.024;23.086;2024-03-08T05:26:36;22.75;;;17.25;;
37943;SDS011;23767;42.024;23.086;2024-03-08T05:29:02;19.55;;;16.75;;
37943;SDS011;23767;42.024;23.086;2024-03-08T05:31:28;19.75;;;13.93;;
37943;SDS011;23767;42.024;23.086;2024-03-08T05:33:56;13.30;;;10.75;;
37943;SDS011;23767;42.024;23.086;2024-03-08T05:36:21;15.30;;;11.60;;
37943;SDS011;23767;42.024;23.086;2024-03-08T05:38:47;16.55;;;10.57;;
37943;SDS011;23767;42.024;23.086;2024-03-08T05:41:15;12.60;;;9.63;;
37943;SDS011;23767;42.024;23.086;2024-03-08T05:43:42;19.52;;;9.60;;
37943;SDS011;23767;42.024;23.086;2024-03-08T05:46:08;12.35;;;9.00;;
37943;SDS011;23767;42.024;23.086;2024-03-08T05:48:36;13.90;;;9.05;;
37943;SDS011;23767;42.024;23.086;2024-03-08T05:51:02;16.77;;;9.18;;
37943;SDS011;23767;42.024;23.086;2024-03-08T05:53:28;12.35;;;9.20;;
37943;SDS011;23767;42.024;23.086;2024-03-08T05:55:57;15.05;;;9.02;;
37943;SDS011;23767;42.024;23.086;2024-03-08T05:58:23;13.52;;;9.55;;
37943;SDS011;23767;42.024;23.086;2024-03-08T06:00:49;13.52;;;9.60;;
37943;SDS011;23767;42.024;23.086;2024-03-08T06:03:15;18.40;;;10.25;;
37943;SDS011;23767;42.024;23.086;2024-03-08T06:05:41;11.88;;;8.30;;
37943;SDS011;23767;42.024;23.086;2024-03-08T06:08:07;11.98;;;8.57;;
37943;SDS011;23767;42.024;23.086;2024-03-08T06:10:33;15.60;;;9.07;;
37943;SDS011;23767;42.024;23.086;2024-03-08T06:12:59;17.00;;;9.85;;
37943;SDS011;23767;42.024;23.086;2024-03-08T06:15:25;15.90;;;9.38;;
37943;SDS011;23767;42.024;23.086;2024-03-08T06:17:50;10.55;;;8.27;;
37943;SDS011;23767;42.024;23.086;2024-03-08T06:20:17;16.67;;;10.02;;
37943;SDS011;23767;42.024;23.086;2024-03-08T06:22:43;15.43;;;9.50;;
37943;SDS011;23767;42.024;23.086;2024-03-08T06:25:10;10.32;;;7.68;;
37943;SDS011;23767;42.024;23.086;2024-03-08T06:27:40;12.93;;;7.97;;
37943;SDS011;23767;42.024;23.086;2024-03-08T06:30:07;12.55;;;8.43;;
37943;SDS011;23767;42.024;23.086;2024-03-08T06:32:34;14.60;;;7.78;;
37943;SDS011;23767;42.024;23.086;2024-03-08T06:35:01;8.85;;;6.75;;
37943;SDS011;23767;42.024;23.086;2024-03-08T06:37:31;11.73;;;6.18;;
37943;SDS011;23767;42.024;23.086;2024-03-08T06:40:00;11.05;;;6.80;;
37943;SDS011;23767;42.024;23.086;2024-03-08T06:42:29;11.43;;;8.23;;
37943;SDS011;23767;42.024;23.086;2024-03-08T06:44:58;10.05;;;7.75;;
37943;SDS011;23767;42.024;23.086;2024-03-08T06:47:29;16.08;;;9.55;;
37943;SDS011;23767;42.024;23.086;2024-03-08T06:49:55;12.32;;;7.45;;
37943;SDS011;23767;42.024;23.086;2024-03-08T06:52:21;8.40;;;6.22;;
37943;SDS011;23767;42.024;23.086;2024-03-08T06:54:47;11.30;;;6.47;;
37943;SDS011;23767;42.024;23.086;2024-03-08T06:57:13;10.32;;;7.10;;
37943;SDS011;23767;42.024;23.086;2024-03-08T06:59:39;11.73;;;7.15;;
37943;SDS011;23767;42.024;23.086;2024-03-08T07:02:04;12.43;;;7.72;;
37943;SDS011;23767;42.024;23.086;2024-03-08T07:04:34;14.18;;;7.40;;
37943;SDS011;23767;42.024;23.086;2024-03-08T07:07:03;10.55;;;7.72;;
37943;SDS011;23767;42.024;23.086;2024-03-08T07:09:29;12.93;;;8.00;;
37943;SDS011;23767;42.024;23.086;2024-03-08T07:11:55;10.48;;;7.18;;
37943;SDS011;23767;42.024;23.086;2024-03-08T07:14:21;11.27;;;6.95;;
37943;SDS011;23767;42.024;23.086;2024-03-08T07:16:47;11.10;;;6.82;;
37943;SDS011;23767;42.024;23.086;2024-03-08T07:19:13;10.30;;;6.45;;
37943;SDS011;23767;42.024;23.086;2024-03-08T07:21:40;10.93;;;7.18;;
37943;SDS011;23767;42.024;23.086;2024-03-08T07:24:07;12.32;;;7.10;;
37943;SDS011;23767;42.024;23.086;2024-03-08T07:26:41;17.00;;;7.40;;
37943;SDS011;23767;42.024;23.086;2024-03-08T07:29:14;10.07;;;7.05;;
37943;SDS011;23767;42.024;23.086;2024-03-08T07:31:40;11.48;;;7.30;;
37943;SDS011;23767;42.024;23.086;2024-03-08T07:34:06;10.02;;;7.15;;
37943;SDS011;23767;42.024;23.086;2024-03-08T07:36:32;12.07;;;6.75;;
37943;SDS011;23767;42.024;23.086;2024-03-08T07:38:59;13.80;;;6.45;;
37943;SDS011;23767;42.024;23.086;2024-03-08T07:41:25;8.35;;;6.30;;
37943;SDS011;23767;42.024;23.086;2024-03-08T07:43:51;9.82;;;6.15;;
37943;SDS011;23767;42.024;23.086;2024-03-08T07:46:17;8.18;;;6.28;;
37943;SDS011;23767;42.024;23.086;2024-03-08T07:48:43;9.73;;;7.15;;
37943;SDS011;23767;42.024;23.086;2024-03-08T07:51:10;13.32;;;7.45;;
37943;SDS011;23767;42.024;23.086;2024-03-08T07:53:37;10.05;;;6.70;;
37943;SDS011;23767;42.024;23.086;2024-03-08T07:56:03;10.95;;;6.93;;
37943;SDS011;23767;42.024;23.086;2024-03-08T07:58:34;9.63;;;7.03;;
37943;SDS011;23767;42.024;23.086;2024-03-08T08:00:59;9.10;;;6.32;;
37943;SDS011;23767;42.024;23.086;2024-03-08T08:03:25;9.65;;;6.07;;
37943;SDS011;23767;42.024;23.086;2024-03-08T08:05:52;8.40;;;6.38;;
37943;SDS011;23767;42.024;23.086;2024-03-08T08:08:18;8.30;;;6.28;;
37943;SDS011;23767;42.024;23.086;2024-03-08T08:10:44;9.95;;;6.05;;
37943;SDS011;23767;42.024;23.086;2024-03-08T08:13:09;10.88;;;6.50;;
37943;SDS011;23767;42.024;23.086;2024-03-08T08:15:36;22.85;;;16.58;;
37943;SDS011;23767;42.024;23.086;2024-03-08T08:18:01;9.27;;;6.88;;
37943;SDS011;23767;42.024;23.086;2024-03-08T08:20:30;9.15;;;6.13;;
37943;SDS011;23767;42.024;23.086;2024-03-08T08:22:56;6.80;;;5.28;;
37943;SDS011;23767;42.024;23.086;2024-03-08T08:25:24;7.97;;;5.45;;
37943;SDS011;23767;42.024;23.086;2024-03-08T08:27:49;11.05;;;6.18;;
37943;SDS011;23767;42.024;23.086;2024-03-08T08:30:15;7.50;;;5.50;;
37943;SDS011;23767;42.024;23.086;2024-03-08T08:32:41;11.45;;;5.65;;
37943;SDS011;23767;42.024;23.086;2024-03-08T08:35:07;9.70;;;5.97;;
37943;SDS011;23767;42.024;23.086;2024-03-08T08:37:34;9.05;;;5.15;;
37943;SDS011;23767;42.024;23.086;2024-03-08T08:40:02;6.45;;;4.20;;
37943;SDS011;23767;42.024;23.086;2024-03-08T08:42:33;6.50;;;3.43;;
37943;SDS011;23767;42.024;23.086;2024-03-08T08:44:59;6.68;;;3.30;;
37943;SDS011;23767;42.024;23.086;2024-03-08T08:47:25;8.55;;;3.45;;
37943;SDS011;23767;42.024;23.086;2024-03-08T08:49:51;6.35;;;3.65;;
37943;SDS011;23767;42.024;23.086;2024-03-08T08:52:16;5.85;;;2.90;;
37943;SDS011;23767;42.024;23.086;2024-03-08T08:54:42;7.90;;;3.17;;
37943;SDS011;23767;42.024;23.086;2024-03-08T08:57:09;7.28;;;2.72;;
37943;SDS011;23767;42.024;23.086;2024-03-08T08:59:35;6.07;;;2.70;;
37943;SDS011;23767;42.024;23.086;2024-03-08T09:02:04;5.05;;;2.50;;
37943;SDS011;23767;42.024;23.086;2024-03-08T09:04:30;4.63;;;2.40;;
37943;SDS011;23767;42.024;23.086;2024-03-08T09:06:56;4.93;;;2.80;;
37943;SDS011;23767;42.024;23.086;2024-03-08T09:09:22;5.20;;;2.60;;
37943;SDS011;23767;42.024;23.086;2024-03-08T09:11:48;6.65;;;2.38;;
37943;SDS011;23767;42.024;23.086;2024-03-08T09:14:14;6.72;;;2.70;;
37943;SDS011;23767;42.024;23.086;2024-03-08T09:16:40;4.95;;;2.30;;
37943;SDS011;23767;42.024;23.086;2024-03-08T09:19:06;9.50;;;2.78;;
37943;SDS011;23767;42.024;23.086;2024-03-08T09:21:32;4.63;;;2.35;;
37943;SDS011;23767;42.024;23.086;2024-03-08T09:24:00;5.28;;;2.65;;
37943;SDS011;23767;42.024;23.086;2024-03-08T09:26:26;6.03;;;2.50;;
37943;SDS011;23767;42.024;23.086;2024-03-08T09:28:52;5.00;;;2.50;;
37943;SDS011;23767;42.024;23.086;2024-03-08T09:31:19;5.53;;;2.50;;
37943;SDS011;23767;42.024;23.086;2024-03-08T09:33:45;6.63;;;2.58;;
37943;SDS011;23767;42.024;23.086;2024-03-08T09:36:11;4.97;;;2.60;;
37943;SDS011;23767;42.024;23.086;2024-03-08T09:38:39;5.47;;;2.20;;
37943;SDS011;23767;42.024;23.086;2024-03-08T09:41:05;4.28;;;1.98;;
37943;SDS011;23767;42.024;23.086;2024-03-08T09:43:31;5.13;;;2.33;;
37943;SDS011;23767;42.024;23.086;2024-03-08T09:45:57;4.20;;;2.20;;
37943;SDS011;23767;42.024;23.086;2024-03-08T09:48:23;3.95;;;2.00;;
37943;SDS011;23767;42.024;23.086;2024-03-08T09:50:51;5.20;;;2.40;;
37943;SDS011;23767;42.024;23.086;2024-03-08T09:53:16;4.60;;;2.45;;
37943;SDS011;23767;42.024;23.086;2024-03-08T09:55:43;9.60;;;4.13;;
37943;SDS011;23767;42.024;23.086;2024-03-08T09:58:13;4.32;;;2.22;;
37943;SDS011;23767;42.024;23.086;2024-03-08T10:00:42;5.55;;;2.50;;
37943;SDS011;23767;42.024;23.086;2024-03-08T10:03:08;7.20;;;2.28;;
37943;SDS011;23767;42.024;23.086;2024-03-08T10:05:34;3.92;;;1.98;;
37943;SDS011;23767;42.024;23.086;2024-03-08T10:08:00;9.20;;;5.70;;
37943;SDS011;23767;42.024;23.086;2024-03-08T10:10:25;4.65;;;2.50;;
37943;SDS011;23767;42.024;23.086;2024-03-08T10:12:51;4.47;;;2.35;;
37943;SDS011;23767;42.024;23.086;2024-03-08T10:15:17;5.35;;;2.60;;
37943;SDS011;23767;42.024;23.086;2024-03-08T10:17:43;5.03;;;2.55;;
37943;SDS011;23767;42.024;23.086;2024-03-08T10:20:13;11.52;;;8.30;;
37943;SDS011;23767;42.024;23.086;2024-03-08T10:22:42;6.28;;;4.53;;
37943;SDS011;23767;42.024;23.086;2024-03-08T10:25:12;6.13;;;2.60;;
37943;SDS011;23767;42.024;23.086;2024-03-08T10:27:41;9.32;;;4.10;;
37943;SDS011;23767;42.024;23.086;2024-03-08T10:30:10;4.85;;;2.40;;
37943;SDS011;23767;42.024;23.086;2024-03-08T10:35:06;4.68;;;2.00;;
37943;SDS011;23767;42.024;23.086;2024-03-08T10:37:39;5.75;;;3.03;;
37943;SDS011;23767;42.024;23.086;2024-03-08T10:40:13;3.88;;;2.25;;
37943;SDS011;23767;42.024;23.086;2024-03-08T10:42:47;3.78;;;1.88;;
37943;SDS011;23767;42.024;23.086;2024-03-08T10:45:23;4.40;;;1.88;;
37943;SDS011;23767;42.024;23.086;2024-03-08T10:47:55;6.28;;;2.95;;
37943;SDS011;23767;42.024;23.086;2024-03-08T10:50:37;3.83;;;2.00;;
37943;SDS011;23767;42.024;23.086;2024-03-08T10:53:04;6.68;;;3.20;;
37943;SDS011;23767;42.024;23.086;2024-03-08T10:55:31;7.53;;;4.55;;
37943;SDS011;23767;42.024;23.086;2024-03-08T10:57:58;5.30;;;3.38;;
37943;SDS011;23767;42.024;23.086;2024-03-08T11:00:25;5.30;;;2.80;;
37943;SDS011;23767;42.024;23.086;2024-03-08T11:02:52;7.38;;;2.58;;
37943;SDS011;23767;42.024;23.086;2024-03-08T11:05:31;4.43;;;2.20;;
37943;SDS011;23767;42.024;23.086;2024-03-08T11:08:01;7.30;;;3.08;;
37943;SDS011;23767;42.024;23.086;2024-03-08T11:10:29;5.82;;;2.90;;
37943;SDS011;23767;42.024;23.086;2024-03-08T11:12:54;5.25;;;3.42;;
37943;SDS011;23767;42.024;23.086;2024-03-08T11:15:20;5.57;;;2.90;;
37943;SDS011;23767;42.024;23.086;2024-03-08T11:17:49;3.30;;;1.70;;
37943;SDS011;23767;42.024;23.086;2024-03-08T11:20:16;4.55;;;2.25;;
37943;SDS011;23767;42.024;23.086;2024-03-08T11:22:50;6.07;;;3.05;;
37943;SDS011;23767;42.024;23.086;2024-03-08T11:28:12;4.15;;;2.22;;
37943;SDS011;23767;42.024;23.086;2024-03-08T11:33:23;9.30;;;2.95;;
37943;SDS011;23767;42.024;23.086;2024-03-08T11:35:51;5.80;;;2.70;;
37943;SDS011;23767;42.024;23.086;2024-03-08T11:38:17;5.20;;;2.10;;
37943;SDS011;23767;42.024;23.086;2024-03-08T11:40:45;4.88;;;2.13;;
37943;SDS011;23767;42.024;23.086;2024-03-08T11:43:15;4.45;;;2.63;;
37943;SDS011;23767;42.024;23.086;2024-03-08T11:45:41;4.97;;;3.25;;
37943;SDS011;23767;42.024;23.086;2024-03-08T11:48:07;4.95;;;2.53;;
37943;SDS011;23767;42.024;23.086;2024-03-08T11:50:33;4.30;;;2.05;;
37943;SDS011;23767;42.024;23.086;2024-03-08T11:53:02;3.75;;;2.00;;
37943;SDS011;23767;42.024;23.086;2024-03-08T11:55:29;6.32;;;1.95;;
37943;SDS011;23767;42.024;23.086;2024-03-08T11:58:00;5.45;;;2.00;;
37943;SDS011;23767;42.024;23.086;2024-03-08T12:00:29;3.92;;;1.67;;
37943;SDS011;23767;42.024;23.086;2024-03-08T12:03:07;5.78;;;1.92;;
37943;SDS011;23767;42.024;23.086;2024-03-08T12:05:34;4.90;;;1.90;;
37943;SDS011;23767;42.024;23.086;2024-03-08T12:08:04;3.97;;;1.60;;
37943;SDS011;23767;42.024;23.086;2024-03-08T12:10:32;3.50;;;1.63;;
37943;SDS011;23767;42.024;23.086;2024-03-08T12:13:00;3.33;;;1.67;;
37943;SDS011;23767;42.024;23.086;2024-03-08T12:15:25;4.25;;;1.60;;
37943;SDS011;23767;42.024;23.086;2024-03-08T12:17:53;4.05;;;1.88;;
37943;SDS011;23767;42.024;23.086;2024-03-08T12:20:24;4.13;;;1.58;;
37943;SDS011;23767;42.024;23.086;2024-03-08T12:22:52;3.30;;;1.50;;
37943;SDS011;23767;42.024;23.086;2024-03-08T12:25:19;6.63;;;1.65;;
37943;SDS011;23767;42.024;23.086;2024-03-08T12:27:45;5.20;;;1.92;;
37943;SDS011;23767;42.024;23.086;2024-03-08T12:35:13;3.85;;;1.40;;
37943;SDS011;23767;42.024;23.086;2024-03-08T12:37:39;4.28;;;1.38;;
37943;SDS011;23767;42.024;23.086;2024-03-08T12:40:07;4.40;;;1.60;;
37943;SDS011;23767;42.024;23.086;2024-03-08T12:42:34;7.03;;;2.33;;
37943;SDS011;23767;42.024;23.086;2024-03-08T12:45:00;2.97;;;1.35;;
37943;SDS011;23767;42.024;23.086;2024-03-08T12:47:26;5.78;;;3.15;;
37943;SDS011;23767;42.024;23.086;2024-03-08T12:49:54;5.22;;;1.63;;
37943;SDS011;23767;42.024;23.086;2024-03-08T12:52:20;7.57;;;2.40;;
37943;SDS011;23767;42.024;23.086;2024-03-08T12:54:45;5.45;;;2.28;;
37943;SDS011;23767;42.024;23.086;2024-03-08T12:57:12;5.68;;;1.70;;
37943;SDS011;23767;42.024;23.086;2024-03-08T12:59:38;4.72;;;1.65;;
37943;SDS011;23767;42.024;23.086;2024-03-08T13:02:04;6.95;;;1.60;;
37943;SDS011;23767;42.024;23.086;2024-03-08T13:04:31;5.45;;;1.70;;
37943;SDS011;23767;42.024;23.086;2024-03-08T13:06:57;4.45;;;1.60;;
37943;SDS011;23767;42.024;23.086;2024-03-08T13:09:23;3.95;;;1.70;;
37943;SDS011;23767;42.024;23.086;2024-03-08T13:11:52;8.13;;;2.95;;
37943;SDS011;23767;42.024;23.086;2024-03-08T13:14:21;9.00;;;5.55;;
37943;SDS011;23767;42.024;23.086;2024-03-08T13:16:47;14.70;;;6.55;;
37943;SDS011;23767;42.024;23.086;2024-03-08T13:19:13;9.32;;;4.10;;
37943;SDS011;23767;42.024;23.086;2024-03-08T13:21:39;8.40;;;2.85;;
37943;SDS011;23767;42.024;23.086;2024-03-08T13:24:04;8.07;;;2.55;;
37943;SDS011;23767;42.024;23.086;2024-03-08T13:26:30;4.70;;;1.50;;
37943;SDS011;23767;42.024;23.086;2024-03-08T13:28:58;7.15;;;1.92;;
37943;SDS011;23767;42.024;23.086;2024-03-08T13:31:24;11.52;;;6.97;;
37943;SDS011;23767;42.024;23.086;2024-03-08T13:33:50;5.80;;;2.80;;
37943;SDS011;23767;42.024;23.086;2024-03-08T13:36:22;4.78;;;1.40;;
37943;SDS011;23767;42.024;23.086;2024-03-08T13:38:53;6.07;;;2.50;;
37943;SDS011;23767;42.024;23.086;2024-03-08T13:41:19;6.03;;;1.85;;
37943;SDS011;23767;42.024;23.086;2024-03-08T13:43:47;5.60;;;2.03;;
37943;SDS011;23767;42.024;23.086;2024-03-08T13:46:14;3.60;;;1.10;;
37943;SDS011;23767;42.024;23.086;2024-03-08T13:48:40;6.90;;;2.78;;
37943;SDS011;23767;42.024;23.086;2024-03-08T13:51:06;7.15;;;1.60;;
37943;SDS011;23767;42.024;23.086;2024-03-08T13:53:33;3.92;;;1.60;;
37943;SDS011;23767;42.024;23.086;2024-03-08T13:56:02;5.97;;;1.60;;
37943;SDS011;23767;42.024;23.086;2024-03-08T13:58:28;6.10;;;1.75;;
37943;SDS011;23767;42.024;23.086;2024-03-08T14:00:53;4.40;;;1.75;;
37943;SDS011;23767;42.024;23.086;2024-03-08T14:03:20;6.75;;;1.60;;
37943;SDS011;23767;42.024;23.086;2024-03-08T14:05:46;6.68;;;1.30;;
37943;SDS011;23767;42.024;23.086;2024-03-08T14:08:12;4.65;;;1.90;;
37943;SDS011;23767;42.024;23.086;2024-03-08T14:10:38;4.35;;;1.40;;
37943;SDS011;23767;42.024;23.086;2024-03-08T14:13:04;3.78;;;1.40;;
37943;SDS011;23767;42.024;23.086;2024-03-08T14:15:31;5.63;;;1.42;;
37943;SDS011;23767;42.024;23.086;2024-03-08T14:17:57;4.15;;;1.55;;
37943;SDS011;23767;42.024;23.086;2024-03-08T14:20:23;4.70;;;1.60;;
37943;SDS011;23767;42.024;23.086;2024-03-08T14:22:52;5.97;;;1.67;;
37943;SDS011;23767;42.024;23.086;2024-03-08T14:25:21;9.23;;;1.42;;
37943;SDS011;23767;42.024;23.086;2024-03-08T14:27:51;3.63;;;1.60;;
37943;SDS011;23767;42.024;23.086;2024-03-08T14:30:27;4.55;;;1.50;;
37943;SDS011;23767;42.024;23.086;2024-03-08T14:33:03;5.47;;;1.65;;
37943;SDS011;23767;42.024;23.086;2024-03-08T14:35:34;5.65;;;1.88;;
37943;SDS011;23767;42.024;23.086;2024-03-08T14:38:03;7.47;;;3.33;;
37943;SDS011;23767;42.024;23.086;2024-03-08T14:40:29;6.65;;;2.35;;
37943;SDS011;23767;42.024;23.086;2024-03-08T14:42:55;5.72;;;2.53;;